Time;durP1;ratioP1;P1;durP2;ratioP2;P2;SDS_P1;SDS_P2;PMS_P1;PMS_P2;Temp;Humidity;BMP_temperature;BMP_pressure;BME280_temperature;BME280_humidity;BME280_pressure;Samples;Min_cycle;Max_cycle;Signal;HPM_P1;HPM_P2
2022/02/09 00:01:55;;;;;;;12.90;8.20;;;;;;;8.16;100.00;101773.89;107479;1284;74407;-85
2022/02/09 00:08:26;;;;;;;;;;;;;;;;;;;;;
2022/02/09 00:22:02;;;;;;;11.10;6.60;;;;;;;8.12;99.99;101762.83;106661;1290;71611;-85
2022/02/09 00:36:56;;;;;;;8.50;5.60;;;;;;;8.14;99.11;101763.67;107039;1284;72441;-85
2022/02/09 01:38:10;;;;;;;7.10;4.80;;;;;;;8.49;88.07;101773.04;107408;1281;74594;-81
2022/02/09 01:56:27;;;;;;;11.90;6.30;;;;;;;8.52;87.45;101762.20;107515;1282;61623;-82
2022/02/09 01:58:54;;;;;;;10.90;6.20;;;;;;;8.54;87.31;101752.50;107306;1282;75232;-82
2022/02/09 02:01:20;;;;;;;8.50;5.40;;;;;;;8.54;87.46;101756.52;107486;1283;72506;-79
2022/02/09 02:03:47;;;;;;;7.90;5.30;;;;;;;8.55;86.84;101751.63;107361;1284;71977;-81
2022/02/09 02:06:15;;;;;;;9.60;5.50;;;;;;;8.57;86.73;101751.46;107516;1282;58595;-80
2022/02/09 02:08:44;;;;;;;8.50;5.20;;;;;;;8.58;86.76;101751.04;107421;1282;60697;-80
2022/02/09 02:14:11;;;;;;;10.50;5.70;;;;;;;8.57;87.10;101752.05;107522;1283;58700;-81
2022/02/09 02:16:42;;;;;;;10.60;6.00;;;;;;;8.55;87.37;101753.95;107315;1284;72955;-81
2022/02/09 02:19:28;;;;;;;8.40;5.30;;;;;;;8.54;87.67;101753.35;107534;1282;61934;-81
2022/02/09 02:32:30;;;;;;;9.90;5.90;;;;;;;8.48;87.61;101753.19;107220;1282;60711;-81
2022/02/09 02:38:50;;;;;;;;;;;;;;;8.44;87.93;101732.39;107518;1282;74615;-81
2022/02/09 02:41:21;;;;;;;12.30;6.10;;;;;;;8.43;88.17;101717.69;107363;1283;72412;-79
2022/02/09 02:43:53;;;;;;;10.50;5.30;;;;;;;8.42;88.07;101720.39;107438;1283;72968;-79
2022/02/09 03:07:46;;;;;;;9.00;5.00;;;;;;;8.43;87.12;101730.41;107544;1282;63049;-80
2022/02/09 03:13:30;;;;;;;7.30;4.20;;;;;;;8.42;86.69;101718.30;107539;1283;61441;-82
2022/02/09 03:16:02;;;;;;;9.10;3.60;;;;;;;8.42;86.64;101714.17;107641;1282;60817;-80
2022/02/09 03:48:03;;;;;;;;;;;;;;;8.46;83.23;101695.71;107481;1272;73936;-83
2022/02/09 03:55:20;;;;;;;4.20;2.40;;;;;;;8.48;82.46;101701.36;107578;1284;60767;-80
2022/02/09 03:57:47;;;;;;;4.90;3.00;;;;;;;8.48;82.60;101699.47;107466;1284;73139;-83
2022/02/09 04:00:19;;;;;;;4.70;2.90;;;;;;;8.47;82.03;101694.36;107442;1284;72687;-80
2022/02/09 04:02:47;;;;;;;6.80;3.00;;;;;;;8.49;82.02;101695.98;107419;1283;73014;-80
2022/02/09 04:05:16;;;;;;;5.20;2.60;;;;;;;8.49;81.59;101692.98;107466;1284;61842;-83
2022/02/09 04:07:43;;;;;;;5.70;3.40;;;;;;;8.48;81.76;101696.20;106975;1284;61689;-83
2022/02/09 04:10:14;;;;;;;5.60;2.40;;;;;;;8.46;81.74;101682.45;107475;1284;74419;-80
2022/02/09 04:15:31;;;;;;;4.60;2.60;;;;;;;8.42;81.71;101671.72;107456;1283;74240;-80
2022/02/09 04:18:17;;;;;;;4.10;2.80;;;;;;;8.41;81.70;101668.64;107458;1282;63341;-80
2022/02/09 04:39:49;;;;;;;3.80;1.80;;;;;;;8.38;79.22;101656.91;107703;1273;74071;-80
2022/02/09 04:45:33;;;;;;;2.80;1.50;;;;;;;8.38;78.88;101649.13;107730;1281;60514;-82
2022/02/09 04:57:50;;;;;;;3.30;1.90;;;;;;;8.36;79.75;101642.66;107933;1281;60510;-80
2022/02/09 05:03:34;;;;;;;5.20;2.60;;;;;;;8.30;81.07;101644.78;107579;1282;73911;-82
2022/02/09 05:25:47;;;;;;;7.40;3.30;;;;;;;8.10;85.19;101627.84;107628;1281;62342;-81
2022/02/09 05:28:00;;;;;;;5.20;3.30;;;;;;;8.10;85.09;101627.88;107534;1282;61015;-82
2022/02/09 05:30:31;;;;;;;4.50;2.70;;;;;;;8.08;85.09;101631.51;107680;1282;74307;-82
2022/02/09 05:32:57;;;;;;;3.70;2.20;;;;;;;8.06;85.12;101633.45;107649;1282;71304;-83
2022/02/09 05:35:26;;;;;;;4.60;2.80;;;;;;;8.05;84.83;101631.98;107515;1282;74019;-80
2022/02/09 05:37:55;;;;;;;7.70;2.60;;;;;;;8.06;84.66;101626.58;107697;1281;62337;-82
2022/02/09 05:40:21;;;;;;;4.00;2.10;;;;;;;8.07;84.80;101629.99;107722;1281;60716;-81
2022/02/09 05:42:48;;;;;;;5.00;2.80;;;;;;;8.08;84.73;101626.55;107655;1281;73986;-79
2022/02/09 05:45:16;;;;;;;4.30;2.80;;;;;;;8.09;84.44;101626.81;107705;1281;71428;-79
2022/02/09 05:58:06;;;;;;;5.60;2.10;;;;;;;8.14;83.51;101633.24;107607;1281;71513;-83
2022/02/09 06:00:32;;;;;;;3.90;2.40;;;;;;;8.16;83.93;101628.00;107629;1281;72932;-81
2022/02/09 06:03:01;;;;;;;6.20;2.60;;;;;;;8.18;83.97;101629.80;107699;1281;58397;-80
2022/02/09 06:05:31;;;;;;;5.00;2.10;;;;;;;8.18;83.84;101631.91;107744;1281;60563;-79
2022/02/09 06:07:57;;;;;;;3.70;2.70;;;;;;;8.16;83.84;101636.99;107709;1281;75709;-79
2022/02/09 06:10:28;;;;;;;3.90;2.10;;;;;;;8.16;84.48;101640.55;107772;1281;58193;-79
2022/02/09 06:21:30;;;;;;;4.00;3.00;;;;;;;8.08;86.36;101647.20;106985;1287;75182;-80
2022/02/09 06:23:57;;;;;;;4.50;2.90;;;;;;;8.07;86.27;101650.80;106901;1287;72373;-82
2022/02/09 06:26:24;;;;;;;4.50;2.70;;;;;;;8.04;86.77;101648.95;107352;1281;73138;-81
2022/02/09 06:28:52;;;;;;;4.00;2.70;;;;;;;8.06;86.51;101654.85;107685;1281;62367;-82
2022/02/09 06:31:18;;;;;;;4.00;2.70;;;;;;;8.05;86.39;101649.75;107736;1281;61819;-79
2022/02/09 06:33:46;;;;;;;4.20;2.40;;;;;;;8.06;86.22;101644.05;107573;1281;59221;-79
2022/02/09 06:36:14;;;;;;;4.80;2.70;;;;;;;8.05;86.28;101638.81;107738;1281;71490;-81
2022/02/09 06:38:41;;;;;;;4.50;2.20;;;;;;;8.06;86.30;101635.90;107741;1281;73427;-81
2022/02/09 06:41:08;;;;;;;3.70;1.90;;;;;;;8.07;85.88;101645.50;107667;1281;60212;-81
2022/02/09 06:43:35;;;;;;;6.40;2.50;;;;;;;8.09;85.71;101637.13;107741;1281;60425;-81
2022/02/09 06:46:02;;;;;;;4.40;2.30;;;;;;;8.10;85.14;101633.66;107737;1281;74110;-81
2022/02/09 06:48:32;;;;;;;3.20;2.20;;;;;;;8.10;85.07;101631.21;107512;1281;71391;-81
2022/02/09 06:51:07;;;;;;;2.00;1.30;;;;;;;8.11;85.29;101622.09;107677;1279;73794;-82
2022/02/09 06:53:43;;;;;;;;;;;;;;;8.11;84.54;101627.42;107764;1281;63309;-81
2022/02/09 06:56:10;;;;;;;2.90;2.00;;;;;;;8.10;84.48;101629.59;107726;1281;61588;-81
2022/02/09 07:01:05;;;;;;;3.00;1.70;;;;;;;8.10;84.03;101615.66;107733;1281;58710;-81
2022/02/09 07:03:33;;;;;;;2.70;1.50;;;;;;;8.12;83.59;101622.20;107555;1281;74116;-82
2022/02/09 07:06:02;;;;;;;3.40;1.80;;;;;;;8.14;83.56;101611.94;107418;1281;61936;-82
2022/02/09 07:08:29;;;;;;;2.30;1.10;;;;;;;8.16;82.73;101616.76;107760;1281;60406;-81
2022/02/09 07:10:56;;;;;;;2.50;1.70;;;;;;;8.18;82.94;101616.89;107482;1281;74089;-81
2022/02/09 07:13:22;;;;;;;3.30;1.80;;;;;;;8.19;82.65;101622.30;107709;1281;58396;-81
2022/02/09 07:15:53;;;;;;;4.70;2.10;;;;;;;8.20;82.54;101615.36;107425;1281;73100;-81
2022/02/09 07:18:19;;;;;;;3.30;1.40;;;;;;;8.20;82.80;101621.48;107555;1282;63428;-81
2022/02/09 07:20:56;;;;;;;4.00;1.90;;;;;;;8.20;82.91;101619.21;107495;1281;62213;-81
2022/02/09 07:26:03;;;;;;;3.30;2.20;;;;;;;8.20;83.21;101621.16;107719;1281;58436;-80
2022/02/09 07:28:30;;;;;;;2.60;1.60;;;;;;;8.21;83.29;101621.63;107815;1281;73997;-80
2022/02/09 07:30:57;;;;;;;2.30;1.60;;;;;;;8.23;83.29;101623.30;107800;1281;61917;-80
2022/02/09 07:33:26;;;;;;;5.40;2.00;;;;;;;8.24;83.05;101625.70;107791;1281;61656;-80
2022/02/09 07:35:52;;;;;;;2.70;1.70;;;;;;;8.26;82.93;101617.50;107680;1282;74350;-80
2022/02/09 07:38:18;;;;;;;15.90;8.30;;;;;;;8.26;82.71;101620.47;107947;1281;58392;-80
2022/02/09 07:40:45;;;;;;;11.50;5.40;;;;;;;8.28;82.92;101621.67;107494;1282;58447;-80
2022/02/09 07:44:06;;;;;;;8.00;3.50;;;;;;;8.30;83.05;101624.17;107553;1281;58265;-80
2022/02/09 07:48:56;;;;;;;14.50;6.50;;;;;;;8.29;83.72;101624.73;107518;1282;75567;-80
2022/02/09 07:53:59;;;;;;;11.10;5.00;;;;;;;8.29;83.84;101615.98;107874;1281;72908;-80
2022/02/09 07:56:37;;;;;;;5.80;2.80;;;;;;;8.29;84.11;101619.12;107847;1281;63305;-81
2022/02/09 07:59:06;;;;;;;4.20;2.50;;;;;;;8.30;84.57;101621.30;107820;1281;61851;-80
2022/02/09 08:01:33;;;;;;;4.10;1.90;;;;;;;8.31;84.96;101622.63;107689;1281;75567;-80
2022/02/09 08:03:59;;;;;;;4.20;2.50;;;;;;;8.33;85.01;101620.70;107836;1281;71000;-81
2022/02/09 08:06:26;;;;;;;8.00;4.40;;;;;;;8.34;84.90;101619.55;107613;1281;58466;-81
2022/02/09 08:09:00;;;;;;;8.60;4.50;;;;;;;8.35;85.06;101613.98;107489;1281;62395;-82
2022/02/09 08:11:35;;;;;;;3.90;2.30;;;;;;;8.36;85.13;101604.56;107889;1281;60385;-81
2022/02/09 08:27:40;;;;;;;3.20;2.20;;;;;;;8.45;85.49;101605.55;107551;1281;72907;-81
2022/02/09 08:32:56;;;;;;;3.60;1.80;;;;;;;8.46;85.12;101605.30;107635;1281;73201;-82
2022/02/09 08:35:23;;;;;;;2.20;1.60;;;;;;;8.44;85.92;101608.24;107749;1281;62598;-81
2022/02/09 08:37:55;;;;;;;4.70;2.10;;;;;;;8.41;86.82;101603.28;107567;1282;61633;-81
2022/02/09 08:40:22;;;;;;;2.40;1.70;;;;;;;8.33;88.64;101616.45;107604;1282;75374;-82
2022/02/09 08:42:49;;;;;;;2.10;1.20;;;;;;;8.20;91.21;101610.75;107646;1281;71416;-82
2022/02/09 08:45:15;;;;;;;3.10;1.60;;;;;;;8.01;93.95;101610.13;107901;1281;72955;-82
2022/02/09 08:47:50;;;;;;;6.20;2.20;;;;;;;7.83;96.05;101610.66;108002;1271;62080;-82
2022/02/09 08:50:17;;;;;;;4.40;2.50;;;;;;;7.69;97.72;101608.89;107422;1276;63134;-81
2022/02/09 08:52:44;;;;;;;5.60;2.70;;;;;;;7.60;98.44;101603.52;107754;1281;74000;-81
2022/02/09 08:55:11;;;;;;;6.00;2.00;;;;;;;7.53;99.21;101598.66;107726;1282;71444;-80
2022/02/09 08:57:38;;;;;;;4.70;2.40;;;;;;;7.47;99.89;101599.66;107540;1282;72425;-80
2022/02/09 09:00:15;;;;;;;5.70;3.50;;;;;;;7.43;100.00;101597.89;107419;1282;62421;-80
2022/02/09 09:02:46;;;;;;;4.30;3.40;;;;;;;7.40;100.00;101592.56;107807;1280;60565;-82
2022/02/09 09:05:21;;;;;;;5.00;3.70;;;;;;;7.35;100.00;101595.58;107721;1281;75617;-81
2022/02/09 09:07:54;;;;;;;5.00;3.10;;;;;;;7.32;100.00;101590.41;107746;1281;72430;-82
2022/02/09 09:10:35;;;;;;;6.40;2.50;;;;;;;7.31;100.00;101588.91;107751;1281;74497;-81
2022/02/09 09:16:55;;;;;;;4.00;3.30;;;;;;;7.31;100.00;101589.45;107563;1281;61965;-80
2022/02/09 09:41:27;;;;;;;3.50;2.90;;;;;;;7.69;100.00;101594.58;107780;1281;64924;-81
2022/02/09 10:05:32;;;;;;;4.90;2.50;;;;;;;7.66;100.00;101599.33;107600;1282;75598;-81
2022/02/09 10:34:27;;;;;;;2.90;2.20;;;;;;;8.08;96.58;101590.81;107594;1281;74070;-80
2022/02/09 10:37:01;;;;;;;2.30;1.70;;;;;;;8.14;95.00;101599.14;107574;1281;62647;-82
2022/02/09 10:42:32;;;;;;;4.30;2.10;;;;;;;8.25;93.69;101595.16;107680;1281;76098;-80
2022/02/09 10:45:34;;;;;;;3.90;2.20;;;;;;;8.30;93.52;101588.01;107638;1281;72701;-80
2022/02/09 10:47:51;;;;;;;3.50;2.10;;;;;;;8.34;91.94;101585.30;107603;1282;72179;-80
2022/02/09 10:50:30;;;;;;;2.80;2.10;;;;;;;8.42;92.01;101581.63;107579;1281;59287;-81
2022/02/09 10:52:59;;;;;;;4.40;2.10;;;;;;;8.51;91.57;101584.52;107368;1282;62800;-79
2022/02/09 10:55:34;;;;;;;2.30;1.70;;;;;;;8.62;90.63;101582.39;107611;1281;74909;-80
2022/02/09 10:58:11;;;;;;;3.40;1.70;;;;;;;8.69;90.63;101585.55;107365;1282;70216;-81
2022/02/09 11:00:43;;;;;;;2.70;1.90;;;;;;;8.70;89.90;101583.86;107586;1281;74049;-79
2022/02/09 11:03:18;;;;;;;2.20;1.60;;;;;;;8.71;89.48;101585.73;107551;1282;62364;-80
2022/02/09 11:05:46;;;;;;;2.70;1.70;;;;;;;8.67;89.89;101578.20;107574;1282;60668;-80
2022/02/09 11:08:14;;;;;;;3.60;1.70;;;;;;;8.59;90.96;101573.27;107613;1282;75052;-80
2022/02/09 11:10:40;;;;;;;2.30;1.70;;;;;;;8.51;91.57;101579.11;107460;1282;72329;-82
2022/02/09 11:13:11;;;;;;;3.40;2.00;;;;;;;8.44;91.79;101579.05;107620;1282;73944;-82
2022/02/09 11:15:44;;;;;;;3.10;2.00;;;;;;;8.41;91.92;101576.98;107553;1282;62448;-81
2022/02/09 11:18:15;;;;;;;2.80;1.90;;;;;;;8.40;91.52;101580.09;107509;1282;60750;-79
2022/02/09 11:21:03;;;;;;;2.80;1.90;;;;;;;8.38;90.83;101593.26;107521;1282;76185;-80
2022/02/09 11:23:56;;;;;;;3.50;2.10;;;;;;;8.38;90.81;101582.91;107341;1282;71878;-80
2022/02/09 11:26:33;;;;;;;3.10;2.00;;;;;;;8.42;91.19;101575.45;107537;1282;73121;-80
2022/02/09 11:35:13;;;;;;;2.00;1.80;;;;;;;8.79;89.39;101579.02;107640;1282;76630;-82
2022/02/09 11:40:43;;;;;;;4.30;1.90;;;;;;;9.04;87.23;101578.15;107638;1282;74116;-80
2022/02/09 11:43:21;;;;;;;1.70;1.20;;;;;;;9.18;85.80;101578.21;107629;1281;62097;-81
2022/02/09 11:49:16;;;;;;;1.30;1.00;;;;;;;9.32;84.13;101569.09;107661;1282;75141;-80
2022/02/09 11:52:01;;;;;;;2.60;1.40;;;;;;;9.37;82.81;101567.70;107678;1283;72389;-79
2022/02/09 11:55:20;;;;;;;2.70;1.20;;;;;;;9.43;82.87;101559.11;107589;1282;73110;-79
2022/02/09 12:09:50;;;;;;;1.50;1.00;;;;;;;10.22;78.45;101570.34;107549;1282;72914;-82
2022/02/09 12:12:23;;;;;;;1.30;1.10;;;;;;;10.23;78.71;101564.63;107495;1284;61698;-81
2022/02/09 12:20:28;;;;;;;2.00;0.80;;;;;;;10.05;78.83;101563.57;107388;1284;72816;-78
2022/02/09 12:23:09;;;;;;;1.60;0.90;;;;;;;9.87;79.33;101567.02;107381;1282;74064;-79
2022/02/09 12:25:48;;;;;;;3.40;1.40;;;;;;;9.74;80.44;101556.48;107614;1283;63287;-81
2022/02/09 12:28:22;;;;;;;1.50;1.00;;;;;;;9.65;81.06;101553.40;107585;1282;60632;-82
2022/02/09 12:31:01;;;;;;;1.80;1.20;;;;;;;9.63;81.44;101551.16;107497;1284;73975;-81
2022/02/09 12:33:27;;;;;;;2.00;1.30;;;;;;;9.63;81.73;101559.70;107487;1284;71708;-80
2022/02/09 12:36:08;;;;;;;3.20;1.40;;;;;;;9.61;81.86;101550.64;107581;1282;58965;-81
2022/02/09 12:38:34;;;;;;;3.30;1.30;;;;;;;9.58;81.91;101550.73;107293;1284;61968;-80
2022/02/09 12:41:13;;;;;;;3.60;1.50;;;;;;;9.53;82.56;101548.02;107515;1283;60510;-79
2022/02/09 12:43:51;;;;;;;2.00;1.20;;;;;;;9.48;83.08;101538.27;107545;1284;74112;-80
2022/02/09 12:46:20;;;;;;;2.30;1.40;;;;;;;9.39;83.25;101542.65;107465;1284;72740;-80
2022/02/09 12:48:48;;;;;;;1.40;1.20;;;;;;;9.26;84.17;101545.53;107311;1284;249936;-80
2022/02/09 12:51:22;;;;;;;3.90;1.70;;;;;;;9.18;84.75;101541.89;107461;1284;62442;-81
2022/02/09 12:53:48;;;;;;;3.70;1.60;;;;;;;9.12;85.28;101534.10;107486;1284;61499;-82
2022/02/09 12:56:21;;;;;;;3.50;2.00;;;;;;;9.09;84.88;101530.17;107411;1283;73824;-81
2022/02/09 12:59:04;;;;;;;2.30;1.80;;;;;;;9.13;84.64;101528.72;107419;1284;71522;-81
2022/02/09 13:01:55;;;;;;;2.40;1.50;;;;;;;9.29;84.54;101525.09;107456;1283;72362;-80
2022/02/09 13:04:38;;;;;;;2.80;1.40;;;;;;;9.42;83.62;101525.30;107518;1284;60939;-80
2022/02/09 13:07:18;;;;;;;2.60;1.60;;;;;;;9.46;83.18;101521.00;107564;1282;60577;-81
2022/02/09 13:09:52;;;;;;;1.90;1.50;;;;;;;9.50;82.86;101523.79;107518;1283;76006;-79
2022/02/09 13:12:26;;;;;;;1.80;0.90;;;;;;;9.61;82.75;101514.29;107297;1284;72616;-80
2022/02/09 13:15:00;;;;;;;2.60;1.40;;;;;;;9.67;81.69;101511.79;107280;1284;74902;-79
2022/02/09 13:17:56;;;;;;;2.20;1.40;;;;;;;9.70;81.74;101514.74;107554;1284;62396;-80
2022/02/09 13:51:58;;;;;;;4.00;1.10;;;;;;;9.94;79.12;101518.33;107532;1282;62457;-81
2022/02/09 14:02:58;;;;;;;1.20;0.80;;;;;;;9.67;78.80;101513.88;107703;1281;62217;-80
2022/02/09 14:11:24;;;;;;;2.00;1.20;;;;;;;9.50;80.16;101535.51;107571;1269;74376;-80
2022/02/09 14:23:58;;;;;;;;;;;;;;;9.41;80.55;101533.45;107624;1281;73028;-82
2022/02/09 14:58:22;;;;;;;1.90;1.30;;;;;;;9.58;80.66;101541.54;107698;1282;59053;-81
2022/02/09 15:00:57;;;;;;;5.30;1.20;;;;;;;9.56;81.13;101535.98;107723;1281;72560;-82
2022/02/09 15:09:40;;;;;;;2.50;1.30;;;;;;;9.49;81.23;101534.10;107629;1282;61783;-82
2022/02/09 15:11:31;;;;;;;2.70;1.60;;;;;;;9.46;81.22;101543.14;107396;1282;75048;-83
2022/02/09 15:16:51;;;;;;;2.20;1.60;;;;;;;9.41;81.92;101542.48;107638;1282;73086;-83
2022/02/09 15:19:36;;;;;;;2.10;1.20;;;;;;;9.40;81.98;101541.88;107785;1282;61185;-83
2022/02/09 15:24:42;;;;;;;3.40;1.60;;;;;;;9.32;82.52;101548.99;107646;1282;74941;-82
2022/02/09 15:27:14;;;;;;;2.10;1.50;;;;;;;9.28;82.46;101550.81;107706;1282;71472;-82
2022/02/09 15:29:41;;;;;;;5.10;2.10;;;;;;;9.22;82.74;101554.05;107663;1282;72966;-81
2022/02/09 15:32:55;;;;;;;3.30;1.60;;;;;;;9.22;83.03;101551.14;107886;1282;62915;-83
2022/02/09 15:35:06;;;;;;;2.30;1.50;;;;;;;9.16;83.49;101551.73;107559;1282;61700;-82
2022/02/09 15:38:22;;;;;;;3.90;1.80;;;;;;;9.10;83.77;101551.94;107730;1282;75271;-81
2022/02/09 15:56:45;;;;;;;3.10;1.50;;;;;;;8.81;84.78;101554.85;107622;1284;75408;-80
2022/02/09 16:17:08;;;;;;;2.40;1.70;;;;;;;8.70;86.00;101551.97;106901;1290;61217;-82
2022/02/09 16:24:13;;;;;;;;;;;;;;;8.64;86.30;101554.64;107710;1282;73041;-81
2022/02/09 16:36:29;;;;;;;;;;;;;;;8.60;86.62;101550.45;107655;1282;71360;-81
2022/02/09 16:46:27;;;;;;;3.10;1.90;;;;;;;8.55;86.84;101551.35;107796;1282;74718;-81
2022/02/09 16:49:06;;;;;;;2.80;2.00;;;;;;;8.55;86.52;101553.67;107644;1282;72400;-81
2022/02/09 16:51:47;;;;;;;3.00;1.90;;;;;;;8.55;86.33;101550.48;107760;1281;73105;-81
2022/02/09 16:54:34;;;;;;;2.60;1.70;;;;;;;8.55;86.18;101548.54;107878;1282;62405;-81
2022/02/09 17:08:18;;;;;;;4.60;2.40;;;;;;;8.54;86.47;101545.96;107765;1282;60534;-81
2022/02/09 17:19:37;;;;;;;3.90;3.00;;;;;;;8.49;86.09;101549.10;107848;1280;74648;-79
2022/02/09 17:22:05;;;;;;;6.40;3.50;;;;;;;8.49;86.27;101551.21;107907;1281;62304;-79
2022/02/09 17:24:31;;;;;;;4.40;3.30;;;;;;;8.47;86.20;101554.05;107901;1279;60828;-79
2022/02/09 17:26:58;;;;;;;4.80;2.80;;;;;;;8.47;86.17;101550.71;107699;1281;76109;-79
2022/02/09 17:29:37;;;;;;;3.30;2.10;;;;;;;8.46;86.24;101546.17;107662;1280;71335;-80
2022/02/09 17:32:15;;;;;;;5.20;3.20;;;;;;;8.46;85.92;101543.77;107896;1280;73948;-79
2022/02/09 17:35:09;;;;;;;3.60;2.80;;;;;;;8.46;85.97;101541.09;107876;1281;62243;-79
2022/02/09 17:38:02;;;;;;;4.50;2.70;;;;;;;8.46;85.90;101540.06;107948;1280;60600;-78
2022/02/09 17:57:33;;;;;;;4.30;3.00;;;;;;;8.39;85.87;101548.80;107727;1282;72211;-79
2022/02/09 18:02:36;;;;;;;4.50;3.60;;;;;;;8.38;85.91;101547.97;107835;1281;63303;-80
2022/02/09 18:05:08;;;;;;;3.90;3.10;;;;;;;8.38;85.95;101542.27;107814;1281;64124;-80
2022/02/09 18:07:37;;;;;;;7.00;3.80;;;;;;;8.38;85.72;101542.27;107759;1282;74137;-80
2022/02/09 18:10:19;;;;;;;4.60;3.20;;;;;;;8.38;85.69;101542.48;107868;1281;72792;-79
2022/02/09 18:13:26;;;;;;;9.10;3.70;;;;;;;8.37;86.00;101543.81;107507;1282;72922;-80
2022/02/09 18:16:10;;;;;;;4.90;2.80;;;;;;;8.35;86.10;101540.95;107689;1281;62339;-81
2022/02/09 18:27:39;;;;;;;4.60;3.50;;;;;;;8.33;85.96;101550.52;107788;1282;74023;-80
2022/02/09 18:29:49;;;;;;;3.90;2.40;;;;;;;8.33;85.82;101547.58;107523;1282;62280;-80
2022/02/09 19:02:36;;;;;;;4.80;3.20;;;;;;;8.26;85.94;101547.52;107836;1282;74954;-80
2022/02/09 19:04:28;;;;;;;4.80;3.50;;;;;;;8.25;85.74;101544.04;107692;1282;73071;-81
2022/02/09 19:18:14;;;;;;;5.80;3.70;;;;;;;8.22;86.06;101544.17;107777;1282;72729;-80
2022/02/09 19:28:57;;;;;;;7.90;4.50;;;;;;;8.21;86.46;101553.02;107782;1282;75153;-81
2022/02/09 19:30:56;;;;;;;8.30;4.50;;;;;;;8.22;86.43;101550.38;107835;1281;71474;-80
2022/02/09 19:50:06;;;;;;;8.20;4.50;;;;;;;8.20;86.63;101540.62;107820;1282;63153;-80
2022/02/09 19:52:51;;;;;;;10.90;5.20;;;;;;;8.20;86.54;101544.19;107885;1282;60665;-81
2022/02/09 19:57:53;;;;;;;5.80;4.60;;;;;;;8.20;86.54;101543.97;107585;1282;59259;-81
2022/02/09 20:00:22;;;;;;;7.90;6.00;;;;;;;8.21;86.39;101538.83;107816;1281;72981;-81
2022/02/09 20:02:51;;;;;;;6.60;4.90;;;;;;;8.21;86.51;101541.95;107865;1282;63342;-81
2022/02/09 20:05:20;;;;;;;8.90;5.50;;;;;;;8.21;86.38;101539.28;107893;1281;60725;-81
2022/02/09 20:07:46;;;;;;;9.70;5.10;;;;;;;8.21;86.59;101540.23;107903;1279;73984;-81
2022/02/09 20:10:13;;;;;;;7.60;4.60;;;;;;;8.21;86.64;101533.19;107855;1282;59119;-81
2022/02/09 20:12:40;;;;;;;9.80;6.00;;;;;;;8.20;86.77;101535.33;107802;1282;71924;-81
2022/02/09 20:15:11;;;;;;;9.40;5.70;;;;;;;8.20;86.80;101537.46;107798;1282;62187;-82
2022/02/09 20:17:40;;;;;;;9.50;6.30;;;;;;;8.20;86.79;101536.21;107760;1282;60642;-81
2022/02/09 20:20:12;;;;;;;7.10;4.70;;;;;;;8.21;86.89;101531.20;107669;1282;74934;-81
2022/02/09 20:22:39;;;;;;;10.60;6.20;;;;;;;8.21;86.92;101529.65;107818;1282;71386;-81
2022/02/09 20:25:07;;;;;;;7.60;5.10;;;;;;;8.21;86.91;101529.27;107573;1282;73024;-81
2022/02/09 20:27:35;;;;;;;8.00;5.20;;;;;;;8.20;86.92;101532.02;107773;1282;63288;-80
2022/02/09 20:30:05;;;;;;;8.80;6.00;;;;;;;8.19;86.99;101533.48;107764;1281;60721;-80
2022/02/09 20:32:37;;;;;;;9.00;6.50;;;;;;;8.17;87.17;101534.71;107723;1281;76027;-80
2022/02/09 20:35:07;;;;;;;8.40;5.20;;;;;;;8.16;86.94;101534.77;107484;1282;72864;-80
2022/02/09 20:37:40;;;;;;;10.10;6.00;;;;;;;8.15;87.02;101535.54;107813;1282;73120;-80
2022/02/09 20:40:58;;;;;;;8.70;6.70;;;;;;;8.15;87.42;101530.48;107806;1282;62406;-81
2022/02/09 20:43:00;;;;;;;11.90;7.10;;;;;;;8.14;87.35;101528.61;107620;1282;61657;-81
2022/02/09 20:45:39;;;;;;;10.60;6.40;;;;;;;8.13;87.27;101528.54;107559;1282;76171;-81
2022/02/09 20:48:10;;;;;;;8.00;5.70;;;;;;;8.13;87.24;101530.52;107757;1282;72437;-80
2022/02/09 20:50:36;;;;;;;10.70;6.30;;;;;;;8.11;87.24;101532.45;107723;1281;73273;-80
2022/02/09 20:53:03;;;;;;;10.70;6.10;;;;;;;8.09;87.48;101535.23;107521;1282;63344;-80
2022/02/09 20:55:30;;;;;;;12.40;7.20;;;;;;;8.08;87.51;101530.59;107641;1282;61567;-80
2022/02/09 20:57:57;;;;;;;11.10;7.00;;;;;;;8.09;87.52;101528.55;107531;1282;75482;-80
2022/02/09 21:00:38;;;;;;;10.70;7.00;;;;;;;8.09;87.85;101530.27;107542;1282;72718;-80
2022/02/09 21:08:34;;;;;;;7.70;5.00;;;;;;;8.08;87.94;101529.20;107239;1284;60211;-80
2022/02/09 21:24:10;;;;;;;11.10;6.90;;;;;;;8.06;88.45;101524.48;107686;1282;74937;-80
2022/02/09 21:26:53;;;;;;;12.00;6.60;;;;;;;8.06;88.31;101521.61;107714;1281;71412;-80
2022/02/09 21:44:21;;;;;;;12.50;6.90;;;;;;;8.07;88.43;101525.94;107490;1283;74214;-80
2022/02/09 21:46:43;;;;;;;12.10;6.60;;;;;;;8.06;88.64;101524.09;107677;1281;63281;-81
2022/02/09 21:49:31;;;;;;;11.30;7.20;;;;;;;8.05;88.59;101523.77;107673;1282;60615;-81
2022/02/09 21:52:33;;;;;;;11.80;7.30;;;;;;;8.04;88.70;101527.94;107761;1280;76181;-81
2022/02/09 21:55:20;;;;;;;13.10;7.90;;;;;;;8.03;88.76;101526.27;107711;1281;72391;-81
2022/02/09 22:19:46;;;;;;;13.40;7.00;;;;;;;8.06;88.57;101515.95;107576;1283;61016;-81
2022/02/09 22:26:09;;;;;;;20.80;7.70;;;;;;;8.07;88.67;101502.35;107654;1282;73590;-80
2022/02/09 22:27:59;;;;;;;13.80;7.10;;;;;;;8.09;88.39;101501.80;107618;1282;63362;-81
2022/02/09 22:55:10;;;;;;;;;;;;;;;8.09;88.76;101476.18;107428;1283;63329;-80
2022/02/09 22:57:50;;;;;;;12.70;7.50;;;;;;;8.08;88.67;101479.83;107350;1284;60520;-80
2022/02/09 23:00:51;;;;;;;14.30;8.60;;;;;;;8.06;88.77;101470.12;107444;1283;75088;-80
2022/02/09 23:06:06;;;;;;;16.20;9.60;;;;;;;8.04;89.10;101464.53;107340;1284;73365;-80
2022/02/09 23:09:16;;;;;;;14.80;8.60;;;;;;;8.04;89.03;101459.63;107655;1282;63617;-81
2022/02/09 23:14:22;;;;;;;13.60;7.90;;;;;;;8.02;89.05;101450.59;107638;1283;59397;-81
